< < Back
Terminal Aerodrome Forecast


Current Version              Previous Versions:   1  2  3  4  5  6  7  8  9  

Terminal Aerodrome Forecast

299
FTUS44 KBMX 200500
TAFTCL
TAF
KTCL 200522Z 2006/2106 00000KT P6SM SKC
     FM201500 10005KT P6SM SKC=

Latest METAR

408
SAUS70 KWBC 210700 RRH
MTRTCL
METAR KTCL 210653Z AUTO 00000KT 8SM CLR 12/11 A3013 RMK AO2 SLP199
T01220106


USA.gov is the U.S. government's official web portal to all federal, state and local government web resources and services.